Time;durP1;ratioP1;P1;durP2;ratioP2;P2;SDS_P1;SDS_P2;PMS_P1;PMS_P2;Temp;Humidity;BMP_temperature;BMP_pressure;BME280_temperature;BME280_humidity;BME280_pressure;Samples;Min_cycle;Max_cycle;Signal;HPM_P1;HPM_P2
2022/09/09 00:01:38;;;;;;;2.10;0.80;;;;;;;15.15;68.94;99709.34;10110164;29;20076;-79
2022/09/09 00:06:46;;;;;;;4.40;0.90;;;;;;;15.35;68.36;99701.75;10106692;29;20049;-79
2022/09/09 00:11:53;;;;;;;5.30;1.02;;;;;;;15.43;68.12;99700.88;10103338;29;20060;-79
2022/09/09 00:17:03;;;;;;;4.13;0.93;;;;;;;15.37;68.29;99704.28;10096145;29;20048;-78
2022/09/09 00:22:16;;;;;;;3.90;0.60;;;;;;;15.36;68.29;99697.19;10104701;29;20087;-79
2022/09/09 00:27:23;;;;;;;;;;;;;;;15.36;68.36;99694.47;10094137;29;20088;-80
2022/09/09 00:32:31;;;;;;;5.35;0.90;;;;;;;15.37;68.35;99712.41;10098775;29;19984;-78
2022/09/09 00:37:35;;;;;;;4.35;0.73;;;;;;;15.46;68.18;99703.25;10102121;29;20082;-79
2022/09/09 00:42:42;;;;;;;3.13;0.90;;;;;;;15.50;68.23;99701.91;10105800;29;20097;-79
2022/09/09 00:47:50;;;;;;;2.03;0.73;;;;;;;15.31;68.87;99705.78;10100917;29;20060;-78
2022/09/09 00:53:06;;;;;;;3.38;0.70;;;;;;;15.29;69.19;99701.56;10100278;29;20033;-79
2022/09/09 00:58:09;;;;;;;4.22;1.00;;;;;;;15.34;68.91;99699.19;10083003;29;20045;-79
2022/09/09 01:03:23;;;;;;;3.20;0.80;;;;;;;15.39;68.61;99697.69;10094996;29;20758;-79
2022/09/09 01:08:48;;;;;;;1.92;0.90;;;;;;;15.34;69.08;99686.53;10095416;29;20056;-79
2022/09/09 01:13:58;;;;;;;5.28;1.25;;;;;;;15.38;69.38;99692.44;10102624;29;20060;-79
2022/09/09 01:19:09;;;;;;;2.93;1.10;;;;;;;15.45;68.87;99686.16;10102194;29;20053;-79
2022/09/09 01:24:23;;;;;;;3.90;1.40;;;;;;;15.13;69.86;99695.16;10087722;29;20306;-78
2022/09/09 01:29:39;;;;;;;3.60;1.08;;;;;;;14.95;70.34;99702.63;10083667;29;20050;-79
2022/09/09 01:34:42;;;;;;;2.95;1.20;;;;;;;15.08;70.06;99694.81;10097460;29;20060;-80
2022/09/09 01:39:45;;;;;;;2.70;1.38;;;;;;;15.02;69.69;99696.34;10095987;29;20042;-80
2022/09/09 01:44:54;;;;;;;2.63;1.10;;;;;;;15.33;68.68;99686.66;10081257;29;20129;-81
2022/09/09 01:49:56;;;;;;;5.70;1.48;;;;;;;15.37;68.90;99688.06;10108065;29;20053;-79
2022/09/09 01:55:02;;;;;;;5.05;1.20;;;;;;;15.11;69.85;99699.91;10071050;29;20065;-80
2022/09/09 02:00:16;;;;;;;2.03;0.90;;;;;;;15.27;69.78;99702.56;10076463;29;20057;-80
2022/09/09 02:05:29;;;;;;;3.50;1.42;;;;;;;15.30;69.74;99689.72;10080297;29;20050;-78
2022/09/09 02:10:41;;;;;;;3.47;1.10;;;;;;;15.26;69.79;99700.06;10069713;29;20594;-80
2022/09/09 02:16:00;;;;;;;5.97;1.15;;;;;;;15.18;70.35;99694.66;10076144;29;20064;-80
2022/09/09 02:21:04;;;;;;;3.70;0.95;;;;;;;14.84;71.10;99693.00;10075836;29;20118;-80
2022/09/09 02:26:08;;;;;;;2.85;1.00;;;;;;;14.96;70.55;99696.19;10071189;29;20059;-78
2022/09/09 02:31:14;;;;;;;1.92;1.25;;;;;;;14.96;70.24;99702.44;10110760;29;20048;-79
2022/09/09 02:36:19;;;;;;;5.88;1.23;;;;;;;14.99;69.71;99698.56;10089215;29;20041;-79
2022/09/09 02:41:27;;;;;;;2.83;1.23;;;;;;;15.00;69.88;99705.63;10093192;29;20494;-79
2022/09/09 02:46:45;;;;;;;2.05;0.70;;;;;;;15.03;69.41;99716.97;10099284;29;20051;-78
2022/09/09 02:51:55;;;;;;;1.50;0.73;;;;;;;15.13;69.03;99705.97;10103871;29;20108;-79
2022/09/09 02:57:05;;;;;;;3.53;1.10;;;;;;;15.25;68.84;99715.44;10084320;29;20061;-78
2022/09/09 03:02:14;;;;;;;1.30;0.73;;;;;;;15.24;68.92;99711.03;10085620;29;20076;-79
2022/09/09 03:07:20;;;;;;;2.60;1.02;;;;;;;15.21;68.94;99714.06;10078417;29;20061;-77
2022/09/09 03:12:25;;;;;;;2.03;1.10;;;;;;;15.25;68.82;99720.00;10107574;29;20045;-77
2022/09/09 03:17:30;;;;;;;3.63;1.02;;;;;;;15.23;69.04;99727.44;10091148;29;20084;-79
2022/09/09 03:22:34;;;;;;;4.25;1.40;;;;;;;15.26;69.64;99725.25;10076682;29;20058;-77
2022/09/09 03:27:37;;;;;;;4.93;1.70;;;;;;;15.26;69.88;99716.28;10099873;29;20152;-78
2022/09/09 03:32:41;;;;;;;6.00;1.20;;;;;;;15.25;70.30;99723.56;10089802;29;20071;-77
2022/09/09 03:37:50;;;;;;;2.72;1.17;;;;;;;15.30;70.51;99716.78;10095323;29;20457;-78
2022/09/09 03:42:54;;;;;;;5.72;1.30;;;;;;;15.30;70.70;99711.38;10091065;29;20112;-79
2022/09/09 03:47:58;;;;;;;2.85;1.30;;;;;;;15.38;70.54;99706.81;10102316;29;20049;-79
2022/09/09 03:53:01;;;;;;;4.80;1.30;;;;;;;15.34;70.38;99710.03;10094982;29;20060;-79
2022/09/09 03:58:04;;;;;;;2.92;1.60;;;;;;;15.32;70.86;99707.47;10098001;29;20055;-79
2022/09/09 04:03:12;;;;;;;5.07;1.30;;;;;;;15.33;71.10;99709.19;10105043;29;20129;-79
2022/09/09 04:08:15;;;;;;;1.70;0.73;;;;;;;15.38;71.06;99708.69;10103447;29;20107;-78
2022/09/09 04:13:19;;;;;;;2.60;1.25;;;;;;;15.35;70.89;99701.75;10129288;29;20056;-78
2022/09/09 04:18:25;;;;;;;5.93;1.20;;;;;;;15.46;70.19;99700.53;10089620;29;20049;-80
2022/09/09 04:23:29;;;;;;;3.67;1.17;;;;;;;15.28;70.85;99708.84;10092767;29;20049;-78
2022/09/09 04:28:36;;;;;;;3.03;1.10;;;;;;;15.37;71.37;99721.38;10081608;29;20049;-78
2022/09/09 04:33:43;;;;;;;3.53;1.08;;;;;;;15.15;71.79;99725.59;10081256;29;20052;-77
2022/09/09 04:38:47;;;;;;;4.53;1.15;;;;;;;15.36;71.27;99716.97;10099673;29;20057;-78
2022/09/09 04:43:50;;;;;;;2.47;1.10;;;;;;;15.29;71.50;99728.63;10097565;29;20095;-79
2022/09/09 04:48:54;;;;;;;4.13;1.13;;;;;;;15.07;74.43;99738.28;10102814;29;20470;-78
2022/09/09 04:54:02;;;;;;;4.00;1.50;;;;;;;14.44;79.12;99739.72;10106874;29;20041;-79
2022/09/09 04:59:06;;;;;;;1.92;1.50;;;;;;;14.27;80.21;99728.84;10095182;29;20056;-78
2022/09/09 05:04:19;;;;;;;3.92;1.73;;;;;;;14.42;81.06;99734.47;10099010;29;20495;-79
2022/09/09 05:09:22;;;;;;;4.78;2.00;;;;;;;14.50;81.12;99739.88;10119363;29;20088;-79
2022/09/09 05:14:27;;;;;;;5.22;2.28;;;;;;;14.50;80.76;99741.75;10111446;29;20094;-79
2022/09/09 05:19:31;;;;;;;5.25;2.33;;;;;;;14.62;81.14;99743.16;10099276;29;20053;-80
2022/09/09 05:24:34;;;;;;;4.38;1.55;;;;;;;14.72;81.42;99745.69;10108819;29;20075;-78
2022/09/09 05:29:38;;;;;;;7.55;2.40;;;;;;;14.78;81.41;99732.34;10085273;29;20086;-79
2022/09/09 05:34:44;;;;;;;6.40;2.00;;;;;;;14.96;81.66;99736.75;10100065;29;20048;-79
2022/09/09 05:39:48;;;;;;;3.92;1.55;;;;;;;15.02;82.42;99736.91;10100236;29;20057;-80
2022/09/09 05:44:54;;;;;;;7.53;1.98;;;;;;;14.72;83.05;99743.81;10103209;29;20056;-79
2022/09/09 05:49:58;;;;;;;5.35;1.88;;;;;;;14.76;84.25;99742.47;10097550;29;20549;-79
2022/09/09 05:55:03;;;;;;;2.92;2.60;;;;;;;14.86;85.32;99741.47;10106948;29;20054;-79
2022/09/09 06:00:08;;;;;;;7.18;2.47;;;;;;;14.99;85.84;99739.13;10105265;29;20087;-80
2022/09/09 06:05:16;;;;;;;3.67;1.70;;;;;;;15.26;84.64;99740.63;10099389;29;20052;-79
2022/09/09 06:10:21;;;;;;;4.68;2.22;;;;;;;15.57;84.82;99746.19;10093246;29;20078;-78
2022/09/09 06:15:24;;;;;;;6.25;2.25;;;;;;;15.84;83.46;99744.09;10090199;29;20049;-78
2022/09/09 06:20:30;;;;;;;6.72;2.00;;;;;;;15.90;82.11;99743.41;10099475;29;20249;-77
2022/09/09 06:25:34;;;;;;;5.60;2.75;;;;;;;16.10;79.96;99739.28;10089824;29;20053;-78
2022/09/09 06:30:38;;;;;;;3.80;2.35;;;;;;;16.22;79.29;99733.47;10095794;29;20041;-78
2022/09/09 06:35:43;;;;;;;3.97;2.20;;;;;;;16.33;77.52;99736.63;10078864;29;20090;-78
2022/09/09 06:40:52;;;;;;;2.45;2.10;;;;;;;16.52;77.63;99738.06;10111529;29;20041;-78
2022/09/09 06:45:57;;;;;;;4.25;2.28;;;;;;;16.73;76.64;99732.00;10078709;29;20060;-79
2022/09/09 06:51:07;;;;;;;7.25;2.45;;;;;;;17.21;76.00;99739.94;10090150;29;20075;-78
2022/09/09 06:56:23;;;;;;;5.82;2.33;;;;;;;17.61;74.17;99743.31;10078653;29;20049;-78
2022/09/09 07:01:30;;;;;;;4.32;1.35;;;;;;;17.66;69.08;99744.44;10079846;29;20053;-78
2022/09/09 07:06:40;;;;;;;6.22;1.52;;;;;;;17.17;69.89;99763.91;10086771;29;20102;-78
2022/09/09 07:11:48;;;;;;;7.65;1.92;;;;;;;17.18;71.08;99770.16;10095936;29;20128;-78
2022/09/09 07:16:52;;;;;;;5.30;1.65;;;;;;;16.66;70.92;99766.28;10096334;29;20396;-78
2022/09/09 07:22:03;;;;;;;4.78;1.58;;;;;;;16.54;71.33;99762.28;10097834;29;20045;-79
2022/09/09 07:27:06;;;;;;;4.93;1.95;;;;;;;16.70;70.73;99767.63;10095719;29;20053;-78
2022/09/09 07:32:11;;;;;;;4.25;1.45;;;;;;;16.66;70.61;99779.00;10079123;29;20144;-78
2022/09/09 07:37:16;;;;;;;2.60;1.13;;;;;;;16.51;70.75;99776.19;10102115;29;20518;-78
2022/09/09 07:42:20;;;;;;;5.53;1.50;;;;;;;16.83;69.89;99769.72;10096223;29;20056;-78
2022/09/09 07:47:24;;;;;;;7.03;1.98;;;;;;;16.87;69.77;99765.63;10096738;29;20132;-78
2022/09/09 07:52:29;;;;;;;5.70;1.58;;;;;;;16.92;69.73;99762.34;10092724;29;20045;-78
2022/09/09 07:57:36;;;;;;;5.85;1.48;;;;;;;17.13;69.47;99754.44;10083642;29;20053;-78
2022/09/09 08:02:39;;;;;;;8.02;2.00;;;;;;;16.77;69.26;99763.16;10083406;29;20056;-78
2022/09/09 08:07:45;;;;;;;6.25;1.38;;;;;;;17.03;68.50;99764.66;10100394;29;20054;-78
2022/09/09 08:12:48;;;;;;;3.97;1.50;;;;;;;17.24;68.24;99751.28;10089862;29;20065;-78
2022/09/09 08:18:12;;;;;;;3.78;0.95;;;;;;;17.47;66.64;99751.25;10089785;29;20117;-78
2022/09/09 08:23:16;;;;;;;4.22;1.20;;;;;;;17.66;66.24;99758.03;10092423;29;20071;-79
2022/09/09 08:28:20;;;;;;;4.28;1.40;;;;;;;18.07;65.17;99757.59;10137415;29;20037;-80
2022/09/09 08:33:24;;;;;;;6.10;1.05;;;;;;;18.73;62.42;99760.28;10127203;29;20056;-79
2022/09/09 08:38:29;;;;;;;6.03;1.27;;;;;;;18.78;62.35;99768.69;10113912;29;20048;-78
2022/09/09 08:43:34;;;;;;;3.13;1.10;;;;;;;18.60;62.49;99773.72;10098927;29;20056;-80
2022/09/09 08:48:53;;;;;;;3.67;1.30;;;;;;;18.61;61.63;99782.72;10102122;29;20531;-80
2022/09/09 08:54:00;;;;;;;3.60;1.30;;;;;;;19.58;59.79;99769.50;10079818;29;20246;-78
2022/09/09 08:59:05;;;;;;;2.92;1.10;;;;;;;19.42;60.35;99778.75;10117627;29;20048;-79
2022/09/09 09:04:39;;;;;;;3.83;1.15;;;;;;;18.30;61.86;99779.22;10083349;29;20049;-80
2022/09/09 09:09:58;;;;;;;7.60;1.73;;;;;;;18.52;61.92;99777.38;10082312;29;20064;-79
2022/09/09 09:15:02;;;;;;;4.35;1.30;;;;;;;18.23;61.56;99783.72;10109839;29;20045;-80
2022/09/09 09:20:12;;;;;;;4.30;1.10;;;;;;;18.98;60.18;99777.09;10090523;29;20059;-79
2022/09/09 09:25:20;;;;;;;5.55;1.17;;;;;;;19.37;59.10;99777.66;10077470;29;20050;-79
2022/09/09 09:30:27;;;;;;;6.25;1.10;;;;;;;19.10;58.47;99773.84;10075005;29;20136;-80
2022/09/09 09:35:38;;;;;;;3.88;1.00;;;;;;;18.65;59.39;99789.44;10075946;29;20045;-79
2022/09/09 09:40:57;;;;;;;1.50;0.60;;;;;;;19.22;57.82;99781.28;10077281;29;20423;-79
2022/09/09 09:46:04;;;;;;;2.33;0.63;;;;;;;19.19;56.63;99781.69;10080301;29;20049;-79
2022/09/09 09:51:23;;;;;;;3.65;1.20;;;;;;;19.17;57.53;99770.16;10076628;29;20049;-79
2022/09/09 09:56:29;;;;;;;3.38;0.88;;;;;;;19.25;56.99;99780.03;10066821;29;20061;-80
2022/09/09 10:01:36;;;;;;;2.85;1.30;;;;;;;18.08;59.20;99812.78;10103936;29;20079;-80
2022/09/09 10:06:44;;;;;;;1.70;0.93;;;;;;;17.84;60.39;99782.09;10075035;29;20057;-80
2022/09/09 10:11:59;;;;;;;4.30;0.90;;;;;;;17.94;60.47;99789.97;10082731;29;20049;-79
2022/09/09 10:17:16;;;;;;;5.93;0.93;;;;;;;17.91;59.88;99787.63;10084924;29;20475;-79
2022/09/09 10:22:27;;;;;;;5.40;1.23;;;;;;;18.79;56.87;99783.19;10090636;29;20049;-79
2022/09/09 10:27:40;;;;;;;2.60;1.05;;;;;;;20.27;53.71;99755.00;10085104;29;20108;-80
2022/09/09 10:32:51;;;;;;;6.13;1.10;;;;;;;20.23;52.67;99752.88;10084464;29;20054;-80
2022/09/09 10:38:13;;;;;;;4.97;0.95;;;;;;;20.75;50.87;99763.16;10089522;29;20041;-79
2022/09/09 10:43:30;;;;;;;1.85;0.80;;;;;;;20.72;49.36;99763.56;10091189;29;20078;-81
2022/09/09 10:48:48;;;;;;;6.93;1.60;;;;;;;21.05;50.00;99754.63;10091901;29;20049;-81
2022/09/09 10:54:06;;;;;;;4.40;1.00;;;;;;;20.87;50.18;99748.91;10079681;29;20102;-81
2022/09/09 10:59:15;;;;;;;3.67;0.88;;;;;;;21.94;48.83;99744.28;10090807;29;20053;-81
2022/09/09 11:04:23;;;;;;;3.63;0.98;;;;;;;22.91;45.61;99756.09;10087012;29;20041;-81
2022/09/09 11:09:32;;;;;;;3.42;0.77;;;;;;;22.73;45.04;99748.63;10090078;29;20072;-81
2022/09/09 11:14:40;;;;;;;3.78;1.38;;;;;;;22.89;44.83;99750.84;10086661;29;20084;-80
2022/09/09 11:19:44;;;;;;;2.55;0.80;;;;;;;23.68;43.14;99758.69;10086960;29;20057;-80
2022/09/09 11:24:52;;;;;;;5.65;0.82;;;;;;;22.58;44.21;99759.88;10085144;29;20045;-81
2022/09/09 11:30:14;;;;;;;3.08;1.20;;;;;;;23.21;43.82;99751.69;10085336;29;20044;-80
2022/09/09 11:35:48;;;;;;;3.55;1.08;;;;;;;22.88;44.10;99751.06;10095645;29;20563;-81
2022/09/09 11:40:58;;;;;;;2.88;0.90;;;;;;;22.84;44.20;99758.88;10081554;29;20045;-81
2022/09/09 11:46:04;;;;;;;2.70;0.85;;;;;;;23.49;43.96;99741.34;10058090;29;20088;-81
2022/09/09 11:51:09;;;;;;;5.60;1.10;;;;;;;23.70;42.15;99740.13;10102249;29;20052;-82
2022/09/09 11:56:31;;;;;;;3.53;0.90;;;;;;;24.76;41.71;99747.91;10099369;29;20045;-80
2022/09/09 12:01:41;;;;;;;4.20;0.95;;;;;;;23.12;43.24;99738.50;10090800;29;20321;-80
2022/09/09 12:06:46;;;;;;;2.67;0.80;;;;;;;20.88;47.82;99750.59;10101081;29;20125;-81
2022/09/09 12:11:50;;;;;;;2.60;1.08;;;;;;;20.31;49.37;99745.38;10099639;29;20041;-80
2022/09/09 12:16:54;;;;;;;2.85;1.25;;;;;;;20.65;49.09;99745.50;10092327;29;20411;-81
2022/09/09 12:22:08;;;;;;;3.03;1.63;;;;;;;21.15;47.75;99751.50;10097101;29;20380;-81
2022/09/09 12:27:19;;;;;;;4.65;0.65;;;;;;;21.87;44.77;99744.31;10094385;29;20054;-80
2022/09/09 12:32:26;;;;;;;1.42;0.65;;;;;;;23.65;42.75;99732.56;10089169;29;20521;-81
2022/09/09 12:37:35;;;;;;;5.13;0.88;;;;;;;23.66;40.55;99726.00;10091533;29;20045;-81
2022/09/09 12:42:41;;;;;;;3.92;0.80;;;;;;;23.07;42.04;99727.34;10096030;29;20048;-82
2022/09/09 12:47:49;;;;;;;2.72;0.80;;;;;;;24.36;39.48;99714.69;10094875;29;20053;-80
2022/09/09 12:52:54;;;;;;;2.38;0.57;;;;;;;24.52;38.33;99730.53;10107624;29;20109;-81
2022/09/09 12:58:00;;;;;;;2.15;1.15;;;;;;;24.50;38.84;99716.19;10089239;29;20049;-80
2022/09/09 13:03:17;;;;;;;2.75;0.50;;;;;;;23.73;40.97;99721.31;10101037;29;20077;-79
2022/09/09 13:08:21;;;;;;;3.08;0.80;;;;;;;23.26;41.46;99700.88;10113226;29;20090;-80
2022/09/09 13:13:29;;;;;;;2.55;0.82;;;;;;;23.33;41.06;99690.69;10101896;29;20052;-81
2022/09/09 13:18:37;;;;;;;2.33;0.70;;;;;;;22.49;42.92;99700.97;10097281;29;20105;-81
2022/09/09 13:23:40;;;;;;;3.80;1.55;;;;;;;23.05;42.44;99683.75;10108203;29;20048;-80
2022/09/09 13:28:46;;;;;;;1.75;0.80;;;;;;;22.98;41.81;99700.25;10106304;29;20074;-81
2022/09/09 13:33:52;;;;;;;3.17;1.02;;;;;;;22.62;42.41;99711.00;10104052;29;20049;-81
2022/09/09 13:38:59;;;;;;;4.07;1.00;;;;;;;22.20;43.01;99697.72;10115767;29;20060;-81
2022/09/09 13:44:03;;;;;;;5.82;1.10;;;;;;;22.52;44.19;99689.59;10106615;29;20056;-81
2022/09/09 13:49:23;;;;;;;3.78;0.80;;;;;;;22.71;43.40;99687.81;10114789;29;20056;-82
2022/09/09 13:54:25;;;;;;;3.45;0.50;;;;;;;21.85;42.21;99694.50;10087618;29;20475;-80
2022/09/09 13:59:28;;;;;;;2.45;1.13;;;;;;;23.19;40.49;99690.81;10106508;29;20045;-81
2022/09/09 14:04:55;;;;;;;3.90;0.55;;;;;;;24.13;39.43;99674.22;10101333;29;20047;-81
2022/09/09 14:09:59;;;;;;;1.85;0.60;;;;;;;24.82;37.74;99687.66;10103121;29;20053;-81
2022/09/09 14:15:03;;;;;;;2.55;0.50;;;;;;;23.29;40.40;99687.56;10099340;29;20053;-81
2022/09/09 14:20:09;;;;;;;4.95;0.70;;;;;;;23.02;40.41;99683.38;10103571;29;20089;-80
2022/09/09 14:25:14;;;;;;;1.30;0.43;;;;;;;23.99;39.11;99684.53;10084177;29;20074;-81
2022/09/09 14:30:17;;;;;;;4.88;0.50;;;;;;;23.76;38.78;99673.41;10094113;29;20045;-82
2022/09/09 14:35:22;;;;;;;1.42;0.57;;;;;;;24.63;38.67;99667.66;10091941;29;20070;-82
2022/09/09 14:40:24;;;;;;;4.82;0.68;;;;;;;22.42;41.47;99670.88;10101437;29;20074;-81
2022/09/09 14:45:28;;;;;;;1.40;0.60;;;;;;;21.41;43.41;99671.44;10103142;29;20061;-81
2022/09/09 14:50:32;;;;;;;3.10;0.60;;;;;;;21.84;42.83;99680.00;10103759;29;20048;-80
2022/09/09 14:55:35;;;;;;;2.92;0.47;;;;;;;21.33;43.96;99671.66;10102865;29;20049;-80
2022/09/09 15:00:38;;;;;;;3.42;0.88;;;;;;;21.47;43.64;99677.94;10116098;29;20053;-80
2022/09/09 15:05:43;;;;;;;1.55;0.43;;;;;;;21.26;43.62;99676.31;10102121;29;20453;-80
2022/09/09 15:10:47;;;;;;;3.33;0.68;;;;;;;21.82;43.54;99673.88;10103445;29;20045;-79
2022/09/09 15:15:50;;;;;;;1.08;0.55;;;;;;;21.31;43.68;99691.00;10095499;29;20503;-79
2022/09/09 15:20:56;;;;;;;2.50;0.77;;;;;;;21.49;43.92;99689.50;10073092;29;20061;-82
2022/09/09 15:26:00;;;;;;;1.73;0.50;;;;;;;21.00;44.83;99700.63;10104712;29;20053;-80
2022/09/09 15:31:07;;;;;;;2.35;0.60;;;;;;;21.60;43.79;99697.06;10102353;29;20045;-79
2022/09/09 15:36:16;;;;;;;1.17;0.68;;;;;;;22.48;42.01;99691.91;10095325;29;20140;-81
2022/09/09 15:41:21;;;;;;;1.90;0.50;;;;;;;22.31;42.31;99691.56;10114551;29;20083;-80
2022/09/09 15:46:27;;;;;;;2.67;0.88;;;;;;;21.31;43.87;99682.81;10126596;29;20116;-80
2022/09/09 15:51:32;;;;;;;1.13;0.60;;;;;;;20.54;45.84;99679.59;10092034;29;20053;-81
2022/09/09 15:56:54;;;;;;;5.55;1.08;;;;;;;20.93;45.98;99675.22;10105876;29;20114;-79
2022/09/09 16:01:59;;;;;;;2.67;0.60;;;;;;;21.02;45.67;99670.41;10103580;29;20061;-80
2022/09/09 16:07:06;;;;;;;3.15;0.70;;;;;;;20.69;46.82;99664.91;10109342;29;20049;-79
2022/09/09 16:12:11;;;;;;;2.72;0.82;;;;;;;20.75;46.89;99675.81;10132965;29;20104;-81
2022/09/09 16:17:15;;;;;;;3.25;0.77;;;;;;;20.06;48.46;99673.31;10109912;29;20056;-81
2022/09/09 16:22:20;;;;;;;0.88;0.57;;;;;;;20.55;47.88;99680.44;10081506;29;20125;-81
2022/09/09 16:27:24;;;;;;;4.45;0.85;;;;;;;20.76;47.94;99684.84;10098120;29;20045;-80
2022/09/09 16:32:27;;;;;;;3.28;0.70;;;;;;;19.85;49.42;99688.72;10091461;29;20049;-80
2022/09/09 16:37:33;;;;;;;4.57;0.68;;;;;;;20.52;47.87;99692.59;10105151;29;20045;-79
2022/09/09 16:42:36;;;;;;;2.83;0.65;;;;;;;20.21;47.89;99712.16;10103190;29;20041;-81
2022/09/09 16:47:41;;;;;;;3.25;0.77;;;;;;;20.17;48.61;99734.59;10101348;29;20065;-79
2022/09/09 16:52:45;;;;;;;1.25;0.60;;;;;;;19.23;53.47;99735.88;10101830;29;20546;-79
2022/09/09 16:57:49;;;;;;;2.30;1.00;;;;;;;18.85;56.34;99740.75;10096746;29;20059;-80
2022/09/09 17:02:51;;;;;;;3.55;0.80;;;;;;;18.82;57.69;99733.81;10090181;29;20051;-81
2022/09/09 17:07:57;;;;;;;4.13;1.00;;;;;;;18.77;57.99;99741.69;10110033;29;20058;-79
2022/09/09 17:13:01;;;;;;;2.65;0.63;;;;;;;18.40;59.75;99754.44;10097189;29;20066;-80
2022/09/09 17:18:04;;;;;;;1.33;0.68;;;;;;;18.08;60.75;99766.59;10105891;29;20049;-80
2022/09/09 17:23:09;;;;;;;4.85;1.30;;;;;;;17.75;62.86;99769.63;10100980;29;20045;-79
2022/09/09 17:28:12;;;;;;;5.30;1.33;;;;;;;17.32;66.22;99791.06;10097049;29;20041;-79
2022/09/09 17:33:15;;;;;;;4.22;1.17;;;;;;;16.97;69.15;99787.91;10087655;29;20060;-79
2022/09/09 17:38:20;;;;;;;1.73;0.90;;;;;;;16.79;71.56;99773.81;10094687;29;20049;-80
2022/09/09 17:43:28;;;;;;;4.00;1.10;;;;;;;16.93;72.64;99764.91;10099273;29;20136;-79
2022/09/09 17:48:31;;;;;;;4.95;1.45;;;;;;;17.16;74.06;99777.66;10108335;29;20045;-79
2022/09/09 17:53:39;;;;;;;6.72;1.35;;;;;;;17.19;72.44;99780.81;10104945;29;20046;-78
2022/09/09 17:58:42;;;;;;;3.97;1.35;;;;;;;17.05;73.26;99789.72;10077906;29;20126;-77
2022/09/09 18:03:47;;;;;;;1.90;1.20;;;;;;;16.93;71.24;99788.47;10114834;29;20057;-79
2022/09/09 18:08:55;;;;;;;4.10;1.45;;;;;;;16.86;72.29;99792.94;10100296;29;20049;-79
2022/09/09 18:14:00;;;;;;;5.05;1.90;;;;;;;16.86;71.90;99790.22;10087763;29;20045;-80
2022/09/09 18:19:05;;;;;;;3.25;1.63;;;;;;;16.75;71.47;99805.03;10102256;29;20052;-79
2022/09/09 18:24:10;;;;;;;2.53;0.95;;;;;;;16.57;70.69;99806.16;10101598;29;20104;-80
2022/09/09 18:29:15;;;;;;;5.20;1.30;;;;;;;16.73;69.60;99809.78;10109338;29;20061;-79
2022/09/09 18:34:20;;;;;;;2.63;1.20;;;;;;;16.77;69.18;99813.84;10099782;29;20072;-78
2022/09/09 18:39:27;;;;;;;1.48;0.93;;;;;;;16.69;68.89;99820.13;10113487;29;20049;-80
2022/09/09 18:44:33;;;;;;;1.92;1.40;;;;;;;16.65;68.00;99828.78;10109507;29;20056;-79
2022/09/09 18:49:36;;;;;;;2.53;0.90;;;;;;;16.67;67.78;99824.88;10108963;29;20486;-80
2022/09/09 18:54:44;;;;;;;2.05;0.70;;;;;;;16.57;67.66;99829.72;10106334;29;20045;-80
2022/09/09 18:59:48;;;;;;;2.42;0.70;;;;;;;16.59;67.46;99820.38;10096352;29;20058;-79
2022/09/09 19:04:50;;;;;;;0.85;0.63;;;;;;;16.61;67.21;99822.91;10120137;29;20048;-79
2022/09/09 19:09:55;;;;;;;3.40;0.70;;;;;;;16.64;66.74;99824.41;10116303;29;20053;-79
2022/09/09 19:14:58;;;;;;;1.60;0.80;;;;;;;16.58;67.31;99824.09;10119341;29;20053;-80
2022/09/09 19:20:02;;;;;;;2.50;0.90;;;;;;;16.54;67.40;99822.78;10115601;29;20046;-79
2022/09/09 19:25:07;;;;;;;1.95;0.73;;;;;;;16.51;67.80;99824.97;10105392;29;20542;-79
2022/09/09 19:30:12;;;;;;;1.52;0.98;;;;;;;16.41;68.07;99833.34;10116650;29;20045;-79
2022/09/09 19:35:15;;;;;;;2.25;0.90;;;;;;;16.48;68.04;99828.91;10099720;29;20109;-80
2022/09/09 19:40:20;;;;;;;2.00;1.10;;;;;;;16.39;68.84;99823.69;10106412;29;20061;-79
2022/09/09 19:45:23;;;;;;;2.80;1.00;;;;;;;16.38;69.48;99836.41;10092526;29;20070;-81
2022/09/09 19:50:27;;;;;;;2.03;0.90;;;;;;;16.23;70.11;99838.09;10108780;29;20056;-80
2022/09/09 19:55:34;;;;;;;1.88;0.80;;;;;;;16.12;70.17;99842.88;10094479;29;20103;-80
2022/09/09 20:00:37;;;;;;;3.90;1.20;;;;;;;16.15;69.99;99830.84;10087847;29;20072;-79
2022/09/09 20:05:41;;;;;;;3.22;0.95;;;;;;;16.02;70.48;99831.41;10079104;29;20457;-79
2022/09/09 20:10:53;;;;;;;2.25;1.00;;;;;;;15.80;71.72;99829.41;10099036;29;20044;-80
2022/09/09 20:15:59;;;;;;;2.17;1.20;;;;;;;15.86;71.37;99839.56;10091681;29;20052;-80
2022/09/09 20:21:04;;;;;;;2.78;0.75;;;;;;;15.78;71.02;99840.41;10099507;29;20045;-80
2022/09/09 20:26:11;;;;;;;1.92;0.80;;;;;;;15.77;71.43;99841.44;10100459;29;20097;-79
2022/09/09 20:31:16;;;;;;;2.63;0.80;;;;;;;15.69;71.41;99845.00;10095436;29;20515;-79
2022/09/09 20:36:21;;;;;;;1.60;0.75;;;;;;;15.58;72.05;99858.03;10093417;29;20507;-80
2022/09/09 20:41:28;;;;;;;1.80;1.20;;;;;;;15.47;72.72;99853.81;10097530;29;20121;-81
2022/09/09 20:46:33;;;;;;;2.00;1.55;;;;;;;15.65;72.08;99850.91;10103768;29;20048;-80
2022/09/09 20:51:37;;;;;;;5.45;1.20;;;;;;;15.67;72.06;99852.44;10094121;29;20073;-81
2022/09/09 20:56:44;;;;;;;2.97;1.15;;;;;;;15.55;71.90;99856.53;10103176;29;20057;-81
2022/09/09 21:01:47;;;;;;;4.65;1.05;;;;;;;15.60;71.52;99843.28;10100718;29;20148;-79
2022/09/09 21:06:50;;;;;;;1.30;0.88;;;;;;;15.60;71.54;99850.56;10088260;29;20053;-80
2022/09/09 21:11:54;;;;;;;1.67;1.10;;;;;;;15.57;71.37;99854.47;10091660;29;20071;-80
2022/09/09 21:16:57;;;;;;;1.48;1.00;;;;;;;15.50;71.70;99858.88;10094701;29;20044;-80
2022/09/09 21:22:00;;;;;;;2.35;0.90;;;;;;;15.14;72.65;99863.69;10098877;29;20057;-80
2022/09/09 21:27:05;;;;;;;2.55;1.02;;;;;;;15.24;72.87;99861.69;10105948;29;20057;-79
2022/09/09 21:32:07;;;;;;;2.28;1.15;;;;;;;15.45;71.96;99858.53;10099902;29;20087;-81
2022/09/09 21:37:10;;;;;;;3.10;1.08;;;;;;;15.12;73.36;99861.19;10096737;29;20041;-81
2022/09/09 21:42:15;;;;;;;1.13;0.93;;;;;;;15.21;72.58;99873.69;10107200;29;20060;-80
2022/09/09 21:47:18;;;;;;;3.13;1.30;;;;;;;14.98;73.87;99861.84;10091622;29;20045;-80
2022/09/09 21:52:20;;;;;;;2.55;1.08;;;;;;;14.95;73.80;99870.28;10089054;29;20052;-80
2022/09/09 21:57:25;;;;;;;2.90;1.20;;;;;;;15.02;73.09;99863.19;10071108;29;20053;-79
2022/09/09 22:02:28;;;;;;;1.50;1.00;;;;;;;15.10;72.94;99868.59;10082744;29;20460;-79
2022/09/09 22:07:32;;;;;;;1.30;1.10;;;;;;;15.03;73.02;99864.91;10083020;29;20083;-79
2022/09/09 22:12:36;;;;;;;1.67;0.80;;;;;;;14.80;73.89;99868.19;10104309;29;20069;-79
2022/09/09 22:17:39;;;;;;;2.35;1.00;;;;;;;14.95;73.34;99878.41;10094521;29;20045;-80
2022/09/09 22:22:42;;;;;;;2.80;1.20;;;;;;;14.78;73.98;99878.34;10086404;29;20161;-79
2022/09/09 22:27:46;;;;;;;3.05;1.38;;;;;;;14.85;73.78;99885.78;10083001;29;20045;-78
2022/09/09 22:32:49;;;;;;;4.13;1.17;;;;;;;14.92;73.83;99894.91;10092989;29;20117;-80
2022/09/09 22:37:54;;;;;;;2.42;1.23;;;;;;;14.84;73.86;99895.78;10090394;29;20558;-81
2022/09/09 22:42:58;;;;;;;1.38;1.10;;;;;;;14.87;74.08;99895.44;10115162;29;20072;-79
2022/09/09 22:48:01;;;;;;;3.22;1.38;;;;;;;14.80;73.99;99908.75;10091885;29;20058;-82
2022/09/09 22:53:04;;;;;;;3.30;1.55;;;;;;;15.09;73.16;99902.09;10090578;29;20075;-80
2022/09/09 22:58:09;;;;;;;2.97;1.23;;;;;;;14.98;73.62;99910.50;10108818;29;20064;-81
2022/09/09 23:03:12;;;;;;;4.57;1.23;;;;;;;15.10;73.03;99911.03;10088607;29;20052;-79
2022/09/09 23:08:17;;;;;;;2.85;1.17;;;;;;;15.03;73.27;99903.59;10089614;29;20037;-80
2022/09/09 23:13:22;;;;;;;3.28;1.75;;;;;;;15.17;72.65;99899.41;10093916;29;20076;-80
2022/09/09 23:18:25;;;;;;;3.90;1.33;;;;;;;15.20;72.77;99896.34;10094499;29;20082;-81
2022/09/09 23:23:28;;;;;;;2.90;1.30;;;;;;;14.98;73.62;99907.81;10095455;29;20040;-80
2022/09/09 23:28:33;;;;;;;2.55;1.60;;;;;;;15.09;73.04;99902.09;10082778;29;20061;-79
2022/09/09 23:33:37;;;;;;;2.35;1.48;;;;;;;15.07;72.81;99895.16;10110034;29;20074;-79
2022/09/09 23:38:40;;;;;;;2.35;1.42;;;;;;;15.10;72.84;99892.13;10129524;29;20045;-79
2022/09/09 23:43:44;;;;;;;2.20;1.35;;;;;;;15.17;72.50;99890.44;10089776;29;20526;-80